sensor_id;sensor_type;location;lat;lon;timestamp;P1;durP1;ratioP1;P2;durP2;ratioP2
7231;SDS011;3657;49.630;11.018;2022-07-05T00:01:22;3.40;;;3.30;;
7231;SDS011;3657;49.630;11.018;2022-07-05T00:03:48;2.70;;;2.70;;
7231;SDS011;3657;49.630;11.018;2022-07-05T00:06:15;3.03;;;2.93;;
7231;SDS011;3657;49.630;11.018;2022-07-05T00:08:42;2.90;;;2.87;;
7231;SDS011;3657;49.630;11.018;2022-07-05T00:11:10;3.27;;;3.07;;
7231;SDS011;3657;49.630;11.018;2022-07-05T00:13:36;2.93;;;2.83;;
7231;SDS011;3657;49.630;11.018;2022-07-05T00:16:03;3.33;;;3.23;;
7231;SDS011;3657;49.630;11.018;2022-07-05T00:18:30;2.80;;;2.70;;
7231;SDS011;3657;49.630;11.018;2022-07-05T00:20:57;3.57;;;3.43;;
7231;SDS011;3657;49.630;11.018;2022-07-05T00:23:27;3.67;;;3.57;;
7231;SDS011;3657;49.630;11.018;2022-07-05T00:25:54;2.90;;;2.90;;
7231;SDS011;3657;49.630;11.018;2022-07-05T00:28:22;2.87;;;2.77;;
7231;SDS011;3657;49.630;11.018;2022-07-05T00:30:49;2.93;;;2.83;;
7231;SDS011;3657;49.630;11.018;2022-07-05T00:33:15;2.90;;;2.80;;
7231;SDS011;3657;49.630;11.018;2022-07-05T00:35:42;3.53;;;3.33;;
7231;SDS011;3657;49.630;11.018;2022-07-05T00:38:09;3.53;;;3.43;;
7231;SDS011;3657;49.630;11.018;2022-07-05T00:40:35;3.20;;;3.10;;
7231;SDS011;3657;49.630;11.018;2022-07-05T00:43:02;2.97;;;2.87;;
7231;SDS011;3657;49.630;11.018;2022-07-05T00:45:30;2.77;;;2.67;;
7231;SDS011;3657;49.630;11.018;2022-07-05T00:47:57;2.73;;;2.70;;
7231;SDS011;3657;49.630;11.018;2022-07-05T00:50:24;3.30;;;3.23;;
7231;SDS011;3657;49.630;11.018;2022-07-05T00:52:52;3.00;;;3.00;;
7231;SDS011;3657;49.630;11.018;2022-07-05T00:55:20;2.80;;;2.80;;
7231;SDS011;3657;49.630;11.018;2022-07-05T00:57:48;3.50;;;3.43;;
7231;SDS011;3657;49.630;11.018;2022-07-05T01:00:15;3.00;;;3.00;;
7231;SDS011;3657;49.630;11.018;2022-07-05T01:02:44;2.57;;;2.47;;
7231;SDS011;3657;49.630;11.018;2022-07-05T01:05:10;3.10;;;3.00;;
7231;SDS011;3657;49.630;11.018;2022-07-05T01:07:37;3.50;;;3.40;;
7231;SDS011;3657;49.630;11.018;2022-07-05T01:10:04;3.10;;;3.10;;
7231;SDS011;3657;49.630;11.018;2022-07-05T01:12:32;3.10;;;3.00;;
7231;SDS011;3657;49.630;11.018;2022-07-05T01:14:58;3.13;;;3.03;;
7231;SDS011;3657;49.630;11.018;2022-07-05T01:17:25;2.87;;;2.77;;
7231;SDS011;3657;49.630;11.018;2022-07-05T01:19:54;3.63;;;3.53;;
7231;SDS011;3657;49.630;11.018;2022-07-05T01:22:21;3.43;;;3.33;;
7231;SDS011;3657;49.630;11.018;2022-07-05T01:24:53;3.20;;;3.00;;
7231;SDS011;3657;49.630;11.018;2022-07-05T01:27:20;3.77;;;3.60;;
7231;SDS011;3657;49.630;11.018;2022-07-05T01:29:47;2.77;;;2.67;;
7231;SDS011;3657;49.630;11.018;2022-07-05T01:32:14;3.07;;;2.97;;
7231;SDS011;3657;49.630;11.018;2022-07-05T01:34:41;3.27;;;2.97;;
7231;SDS011;3657;49.630;11.018;2022-07-05T01:37:08;3.23;;;3.13;;
7231;SDS011;3657;49.630;11.018;2022-07-05T01:39:36;3.50;;;3.40;;
7231;SDS011;3657;49.630;11.018;2022-07-05T01:42:04;3.30;;;3.20;;
7231;SDS011;3657;49.630;11.018;2022-07-05T01:44:31;3.33;;;3.23;;
7231;SDS011;3657;49.630;11.018;2022-07-05T01:47:01;3.23;;;3.23;;
7231;SDS011;3657;49.630;11.018;2022-07-05T01:49:34;3.43;;;3.40;;
7231;SDS011;3657;49.630;11.018;2022-07-05T01:52:07;3.50;;;3.20;;
7231;SDS011;3657;49.630;11.018;2022-07-05T01:54:36;3.60;;;3.50;;
7231;SDS011;3657;49.630;11.018;2022-07-05T01:57:04;3.83;;;3.73;;
7231;SDS011;3657;49.630;11.018;2022-07-05T01:59:32;3.70;;;3.60;;
7231;SDS011;3657;49.630;11.018;2022-07-05T02:02:00;3.87;;;3.77;;
7231;SDS011;3657;49.630;11.018;2022-07-05T02:04:27;3.70;;;3.60;;
7231;SDS011;3657;49.630;11.018;2022-07-05T02:06:54;3.87;;;3.77;;
7231;SDS011;3657;49.630;11.018;2022-07-05T02:09:21;3.83;;;3.73;;
7231;SDS011;3657;49.630;11.018;2022-07-05T02:11:51;3.63;;;3.60;;
7231;SDS011;3657;49.630;11.018;2022-07-05T02:14:19;3.90;;;3.80;;
7231;SDS011;3657;49.630;11.018;2022-07-05T02:16:46;4.17;;;4.07;;
7231;SDS011;3657;49.630;11.018;2022-07-05T02:19:12;3.93;;;3.83;;
7231;SDS011;3657;49.630;11.018;2022-07-05T02:21:39;4.40;;;4.30;;
7231;SDS011;3657;49.630;11.018;2022-07-05T02:24:06;3.73;;;3.63;;
7231;SDS011;3657;49.630;11.018;2022-07-05T02:26:33;4.10;;;4.00;;
7231;SDS011;3657;49.630;11.018;2022-07-05T02:29:01;3.40;;;3.30;;
7231;SDS011;3657;49.630;11.018;2022-07-05T02:31:30;4.20;;;4.00;;
7231;SDS011;3657;49.630;11.018;2022-07-05T02:33:57;3.33;;;3.23;;
7231;SDS011;3657;49.630;11.018;2022-07-05T02:36:23;3.00;;;2.90;;
7231;SDS011;3657;49.630;11.018;2022-07-05T02:38:50;3.30;;;3.20;;
7231;SDS011;3657;49.630;11.018;2022-07-05T02:41:17;2.83;;;2.83;;
7231;SDS011;3657;49.630;11.018;2022-07-05T02:43:44;3.60;;;3.30;;
7231;SDS011;3657;49.630;11.018;2022-07-05T02:46:10;3.87;;;3.67;;
7231;SDS011;3657;49.630;11.018;2022-07-05T02:48:38;3.80;;;3.70;;
7231;SDS011;3657;49.630;11.018;2022-07-05T02:51:05;3.43;;;3.33;;
7231;SDS011;3657;49.630;11.018;2022-07-05T02:53:32;3.70;;;3.60;;
7231;SDS011;3657;49.630;11.018;2022-07-05T02:56:00;3.50;;;3.40;;
7231;SDS011;3657;49.630;11.018;2022-07-05T02:58:27;4.03;;;3.93;;
7231;SDS011;3657;49.630;11.018;2022-07-05T03:00:53;3.47;;;3.37;;
7231;SDS011;3657;49.630;11.018;2022-07-05T03:03:20;4.20;;;4.10;;
7231;SDS011;3657;49.630;11.018;2022-07-05T03:05:48;4.10;;;4.00;;
7231;SDS011;3657;49.630;11.018;2022-07-05T03:08:15;4.17;;;4.07;;
7231;SDS011;3657;49.630;11.018;2022-07-05T03:10:42;4.33;;;4.23;;
7231;SDS011;3657;49.630;11.018;2022-07-05T03:13:09;3.53;;;3.43;;
7231;SDS011;3657;49.630;11.018;2022-07-05T03:15:35;3.57;;;3.47;;
7231;SDS011;3657;49.630;11.018;2022-07-05T03:18:02;4.07;;;3.97;;
7231;SDS011;3657;49.630;11.018;2022-07-05T03:20:29;4.03;;;3.93;;
7231;SDS011;3657;49.630;11.018;2022-07-05T03:22:57;4.13;;;4.03;;
7231;SDS011;3657;49.630;11.018;2022-07-05T03:25:23;4.43;;;4.33;;
7231;SDS011;3657;49.630;11.018;2022-07-05T03:27:50;4.23;;;4.13;;
7231;SDS011;3657;49.630;11.018;2022-07-05T03:30:17;4.00;;;3.90;;
7231;SDS011;3657;49.630;11.018;2022-07-05T03:32:44;3.87;;;3.77;;
7231;SDS011;3657;49.630;11.018;2022-07-05T03:35:10;4.23;;;4.13;;
7231;SDS011;3657;49.630;11.018;2022-07-05T03:37:37;4.40;;;4.30;;
7231;SDS011;3657;49.630;11.018;2022-07-05T03:40:06;4.20;;;4.10;;
7231;SDS011;3657;49.630;11.018;2022-07-05T03:42:33;5.50;;;5.20;;
7231;SDS011;3657;49.630;11.018;2022-07-05T03:45:00;3.90;;;3.80;;
7231;SDS011;3657;49.630;11.018;2022-07-05T03:47:27;4.60;;;4.40;;
7231;SDS011;3657;49.630;11.018;2022-07-05T03:49:54;4.40;;;4.10;;
7231;SDS011;3657;49.630;11.018;2022-07-05T03:52:20;4.20;;;4.10;;
7231;SDS011;3657;49.630;11.018;2022-07-05T03:54:47;4.73;;;4.53;;
7231;SDS011;3657;49.630;11.018;2022-07-05T03:57:15;4.50;;;4.40;;
7231;SDS011;3657;49.630;11.018;2022-07-05T03:59:42;4.90;;;4.80;;
7231;SDS011;3657;49.630;11.018;2022-07-05T04:02:09;4.30;;;4.17;;
7231;SDS011;3657;49.630;11.018;2022-07-05T04:04:36;4.53;;;4.33;;
7231;SDS011;3657;49.630;11.018;2022-07-05T04:07:02;4.30;;;4.10;;
7231;SDS011;3657;49.630;11.018;2022-07-05T04:09:29;4.73;;;4.53;;
7231;SDS011;3657;49.630;11.018;2022-07-05T04:11:56;5.37;;;5.17;;
7231;SDS011;3657;49.630;11.018;2022-07-05T04:14:24;4.37;;;4.07;;
7231;SDS011;3657;49.630;11.018;2022-07-05T04:16:51;5.10;;;3.87;;
7231;SDS011;3657;49.630;11.018;2022-07-05T04:19:17;4.53;;;4.20;;
7231;SDS011;3657;49.630;11.018;2022-07-05T04:21:44;4.20;;;4.03;;
7231;SDS011;3657;49.630;11.018;2022-07-05T04:24:11;4.20;;;4.10;;
7231;SDS011;3657;49.630;11.018;2022-07-05T04:26:37;4.10;;;3.90;;
7231;SDS011;3657;49.630;11.018;2022-07-05T04:29:04;4.87;;;4.77;;
7231;SDS011;3657;49.630;11.018;2022-07-05T04:31:32;4.40;;;4.30;;
7231;SDS011;3657;49.630;11.018;2022-07-05T04:33:59;5.30;;;5.10;;
7231;SDS011;3657;49.630;11.018;2022-07-05T04:36:26;3.77;;;3.67;;
7231;SDS011;3657;49.630;11.018;2022-07-05T04:38:53;5.33;;;5.13;;
7231;SDS011;3657;49.630;11.018;2022-07-05T04:41:20;4.60;;;4.30;;
7231;SDS011;3657;49.630;11.018;2022-07-05T04:43:54;4.73;;;4.43;;
7231;SDS011;3657;49.630;11.018;2022-07-05T04:46:21;4.63;;;4.43;;
7231;SDS011;3657;49.630;11.018;2022-07-05T04:48:50;4.83;;;4.73;;
7231;SDS011;3657;49.630;11.018;2022-07-05T04:51:17;4.63;;;4.47;;
7231;SDS011;3657;49.630;11.018;2022-07-05T04:53:43;4.10;;;4.00;;
7231;SDS011;3657;49.630;11.018;2022-07-05T04:56:10;4.47;;;4.37;;
7231;SDS011;3657;49.630;11.018;2022-07-05T04:58:37;4.47;;;4.37;;
7231;SDS011;3657;49.630;11.018;2022-07-05T05:01:03;3.93;;;3.83;;
7231;SDS011;3657;49.630;11.018;2022-07-05T05:03:30;4.70;;;4.60;;
7231;SDS011;3657;49.630;11.018;2022-07-05T05:05:58;4.00;;;3.90;;
7231;SDS011;3657;49.630;11.018;2022-07-05T05:08:25;4.00;;;3.90;;
7231;SDS011;3657;49.630;11.018;2022-07-05T05:10:51;3.60;;;3.50;;
7231;SDS011;3657;49.630;11.018;2022-07-05T05:13:18;4.73;;;4.53;;
7231;SDS011;3657;49.630;11.018;2022-07-05T05:15:45;4.27;;;4.07;;
7231;SDS011;3657;49.630;11.018;2022-07-05T05:18:11;4.07;;;3.87;;
7231;SDS011;3657;49.630;11.018;2022-07-05T05:20:38;4.10;;;4.00;;
7231;SDS011;3657;49.630;11.018;2022-07-05T05:23:06;4.53;;;4.33;;
7231;SDS011;3657;49.630;11.018;2022-07-05T05:25:33;4.30;;;4.07;;
7231;SDS011;3657;49.630;11.018;2022-07-05T05:28:00;4.17;;;4.07;;
7231;SDS011;3657;49.630;11.018;2022-07-05T05:30:29;4.20;;;4.10;;
7231;SDS011;3657;49.630;11.018;2022-07-05T05:32:56;4.63;;;4.53;;
7231;SDS011;3657;49.630;11.018;2022-07-05T05:35:23;4.77;;;4.40;;
7231;SDS011;3657;49.630;11.018;2022-07-05T05:37:50;5.03;;;4.80;;
7231;SDS011;3657;49.630;11.018;2022-07-05T05:40:19;4.57;;;4.17;;
7231;SDS011;3657;49.630;11.018;2022-07-05T05:42:47;4.80;;;4.70;;
7231;SDS011;3657;49.630;11.018;2022-07-05T05:45:14;4.70;;;4.50;;
7231;SDS011;3657;49.630;11.018;2022-07-05T05:47:44;4.87;;;4.77;;
7231;SDS011;3657;49.630;11.018;2022-07-05T05:50:18;4.87;;;4.77;;
7231;SDS011;3657;49.630;11.018;2022-07-05T05:52:45;4.43;;;4.23;;
7231;SDS011;3657;49.630;11.018;2022-07-05T05:55:12;4.07;;;3.87;;
7231;SDS011;3657;49.630;11.018;2022-07-05T05:57:40;4.37;;;4.17;;
7231;SDS011;3657;49.630;11.018;2022-07-05T06:00:08;4.03;;;3.93;;
7231;SDS011;3657;49.630;11.018;2022-07-05T06:02:35;4.97;;;4.77;;
7231;SDS011;3657;49.630;11.018;2022-07-05T06:05:02;5.07;;;4.77;;
7231;SDS011;3657;49.630;11.018;2022-07-05T06:07:29;4.07;;;3.87;;
7231;SDS011;3657;49.630;11.018;2022-07-05T06:09:56;4.27;;;4.17;;
7231;SDS011;3657;49.630;11.018;2022-07-05T06:12:23;4.80;;;4.70;;
7231;SDS011;3657;49.630;11.018;2022-07-05T06:14:51;3.93;;;3.83;;
7231;SDS011;3657;49.630;11.018;2022-07-05T06:17:18;5.20;;;5.00;;
7231;SDS011;3657;49.630;11.018;2022-07-05T06:19:44;4.90;;;4.80;;
7231;SDS011;3657;49.630;11.018;2022-07-05T06:22:11;4.60;;;4.40;;
7231;SDS011;3657;49.630;11.018;2022-07-05T06:24:37;5.10;;;4.70;;
7231;SDS011;3657;49.630;11.018;2022-07-05T06:27:04;4.13;;;4.03;;
7231;SDS011;3657;49.630;11.018;2022-07-05T06:29:31;4.40;;;4.30;;
7231;SDS011;3657;49.630;11.018;2022-07-05T06:31:59;4.37;;;4.20;;
7231;SDS011;3657;49.630;11.018;2022-07-05T06:34:26;4.47;;;4.37;;
7231;SDS011;3657;49.630;11.018;2022-07-05T06:36:55;4.13;;;4.03;;
7231;SDS011;3657;49.630;11.018;2022-07-05T06:39:22;4.40;;;4.30;;
7231;SDS011;3657;49.630;11.018;2022-07-05T06:41:49;4.47;;;4.27;;
7231;SDS011;3657;49.630;11.018;2022-07-05T06:44:15;3.73;;;3.63;;
7231;SDS011;3657;49.630;11.018;2022-07-05T06:46:42;3.87;;;3.77;;
7231;SDS011;3657;49.630;11.018;2022-07-05T06:49:10;3.90;;;3.70;;
7231;SDS011;3657;49.630;11.018;2022-07-05T06:51:36;3.87;;;3.77;;
7231;SDS011;3657;49.630;11.018;2022-07-05T06:54:03;5.10;;;4.90;;
7231;SDS011;3657;49.630;11.018;2022-07-05T06:56:30;4.00;;;3.90;;
7231;SDS011;3657;49.630;11.018;2022-07-05T06:58:56;3.53;;;3.30;;
7231;SDS011;3657;49.630;11.018;2022-07-05T07:01:23;4.10;;;4.00;;
7231;SDS011;3657;49.630;11.018;2022-07-05T07:03:50;3.37;;;3.27;;
7231;SDS011;3657;49.630;11.018;2022-07-05T07:06:18;4.03;;;3.93;;
7231;SDS011;3657;49.630;11.018;2022-07-05T07:08:45;4.00;;;3.70;;
7231;SDS011;3657;49.630;11.018;2022-07-05T07:11:31;2.93;;;2.83;;
7231;SDS011;3657;49.630;11.018;2022-07-05T07:13:58;4.13;;;4.03;;
7231;SDS011;3657;49.630;11.018;2022-07-05T07:16:25;3.53;;;3.33;;
7231;SDS011;3657;49.630;11.018;2022-07-05T07:18:51;4.17;;;3.80;;
7231;SDS011;3657;49.630;11.018;2022-07-05T07:21:19;3.27;;;3.03;;
7231;SDS011;3657;49.630;11.018;2022-07-05T07:23:46;4.07;;;3.97;;
7231;SDS011;3657;49.630;11.018;2022-07-05T07:26:13;3.60;;;3.50;;
7231;SDS011;3657;49.630;11.018;2022-07-05T07:28:40;3.63;;;3.53;;
7231;SDS011;3657;49.630;11.018;2022-07-05T07:31:06;3.80;;;3.70;;
7231;SDS011;3657;49.630;11.018;2022-07-05T07:33:33;4.00;;;3.70;;
7231;SDS011;3657;49.630;11.018;2022-07-05T07:36:00;3.63;;;3.43;;
7231;SDS011;3657;49.630;11.018;2022-07-05T07:38:28;3.27;;;3.17;;
7231;SDS011;3657;49.630;11.018;2022-07-05T07:40:55;3.53;;;3.43;;
7231;SDS011;3657;49.630;11.018;2022-07-05T07:43:22;2.83;;;2.83;;
7231;SDS011;3657;49.630;11.018;2022-07-05T07:45:48;3.30;;;3.20;;
7231;SDS011;3657;49.630;11.018;2022-07-05T07:48:15;4.10;;;3.03;;
7231;SDS011;3657;49.630;11.018;2022-07-05T07:50:41;3.80;;;3.47;;
7231;SDS011;3657;49.630;11.018;2022-07-05T07:53:08;3.10;;;3.00;;
7231;SDS011;3657;49.630;11.018;2022-07-05T07:55:36;3.67;;;3.57;;
7231;SDS011;3657;49.630;11.018;2022-07-05T07:58:03;3.47;;;3.37;;
7231;SDS011;3657;49.630;11.018;2022-07-05T08:00:31;3.37;;;3.03;;
7231;SDS011;3657;49.630;11.018;2022-07-05T08:02:57;3.43;;;3.30;;
7231;SDS011;3657;49.630;11.018;2022-07-05T08:05:24;3.83;;;3.73;;
7231;SDS011;3657;49.630;11.018;2022-07-05T08:07:51;3.37;;;3.27;;
7231;SDS011;3657;49.630;11.018;2022-07-05T08:10:17;3.47;;;3.37;;
7231;SDS011;3657;49.630;11.018;2022-07-05T08:12:45;3.27;;;3.17;;
7231;SDS011;3657;49.630;11.018;2022-07-05T08:15:12;3.10;;;3.00;;
7231;SDS011;3657;49.630;11.018;2022-07-05T08:17:39;3.83;;;3.73;;
7231;SDS011;3657;49.630;11.018;2022-07-05T08:20:26;3.40;;;3.30;;
7231;SDS011;3657;49.630;11.018;2022-07-05T08:23:10;7.83;;;3.33;;
7231;SDS011;3657;49.630;11.018;2022-07-05T08:25:37;3.23;;;3.13;;
7231;SDS011;3657;49.630;11.018;2022-07-05T08:28:05;3.40;;;3.30;;
7231;SDS011;3657;49.630;11.018;2022-07-05T08:30:34;2.70;;;2.60;;
7231;SDS011;3657;49.630;11.018;2022-07-05T08:33:00;3.40;;;3.30;;
7231;SDS011;3657;49.630;11.018;2022-07-05T08:35:27;3.47;;;3.37;;
7231;SDS011;3657;49.630;11.018;2022-07-05T08:37:54;3.00;;;2.90;;
7231;SDS011;3657;49.630;11.018;2022-07-05T08:40:21;3.47;;;3.37;;
7231;SDS011;3657;49.630;11.018;2022-07-05T08:42:51;2.97;;;2.87;;
7231;SDS011;3657;49.630;11.018;2022-07-05T08:45:21;3.03;;;2.93;;
7231;SDS011;3657;49.630;11.018;2022-07-05T08:47:49;3.30;;;3.20;;
7231;SDS011;3657;49.630;11.018;2022-07-05T08:50:17;3.07;;;2.97;;
7231;SDS011;3657;49.630;11.018;2022-07-05T08:52:45;3.20;;;3.00;;
7231;SDS011;3657;49.630;11.018;2022-07-05T08:55:12;2.80;;;2.70;;
7231;SDS011;3657;49.630;11.018;2022-07-05T08:57:41;2.77;;;2.67;;
7231;SDS011;3657;49.630;11.018;2022-07-05T09:00:09;2.87;;;2.87;;
7231;SDS011;3657;49.630;11.018;2022-07-05T09:02:40;2.83;;;2.73;;
7231;SDS011;3657;49.630;11.018;2022-07-05T09:05:07;3.10;;;3.00;;
7231;SDS011;3657;49.630;11.018;2022-07-05T09:07:37;3.20;;;3.10;;
7231;SDS011;3657;49.630;11.018;2022-07-05T09:10:09;2.83;;;2.83;;
7231;SDS011;3657;49.630;11.018;2022-07-05T09:12:37;3.08;;;2.97;;
7231;SDS011;3657;49.630;11.018;2022-07-05T09:15:04;2.65;;;2.65;;
7231;SDS011;3657;49.630;11.018;2022-07-05T09:17:31;2.83;;;2.83;;
7231;SDS011;3657;49.630;11.018;2022-07-05T09:20:06;3.20;;;3.10;;
7231;SDS011;3657;49.630;11.018;2022-07-05T09:22:44;2.95;;;2.95;;
7231;SDS011;3657;49.630;11.018;2022-07-05T09:25:13;2.83;;;2.83;;
7231;SDS011;3657;49.630;11.018;2022-07-05T09:27:46;3.22;;;3.13;;
7231;SDS011;3657;49.630;11.018;2022-07-05T09:30:15;3.45;;;3.25;;
7231;SDS011;3657;49.630;11.018;2022-07-05T09:32:59;3.05;;;2.95;;
7231;SDS011;3657;49.630;11.018;2022-07-05T09:35:32;3.10;;;2.93;;
7231;SDS011;3657;49.630;11.018;2022-07-05T09:38:00;3.40;;;3.30;;
7231;SDS011;3657;49.630;11.018;2022-07-05T09:40:28;3.35;;;3.25;;
7231;SDS011;3657;49.630;11.018;2022-07-05T09:43:10;2.78;;;2.78;;
7231;SDS011;3657;49.630;11.018;2022-07-05T09:45:38;2.70;;;2.70;;
7231;SDS011;3657;49.630;11.018;2022-07-05T09:48:05;2.38;;;2.28;;
7231;SDS011;3657;49.630;11.018;2022-07-05T09:50:34;2.45;;;2.40;;
7231;SDS011;3657;49.630;11.018;2022-07-05T09:53:02;2.03;;;2.03;;
7231;SDS011;3657;49.630;11.018;2022-07-05T09:55:29;3.20;;;3.00;;
7231;SDS011;3657;49.630;11.018;2022-07-05T09:57:56;3.20;;;3.13;;
7231;SDS011;3657;49.630;11.018;2022-07-05T10:00:23;2.80;;;2.80;;
7231;SDS011;3657;49.630;11.018;2022-07-05T10:02:50;2.90;;;2.90;;
7231;SDS011;3657;49.630;11.018;2022-07-05T10:05:19;2.70;;;2.70;;
7231;SDS011;3657;49.630;11.018;2022-07-05T10:07:48;2.92;;;2.83;;
7231;SDS011;3657;49.630;11.018;2022-07-05T10:10:16;3.08;;;3.00;;
7231;SDS011;3657;49.630;11.018;2022-07-05T10:12:44;2.85;;;2.85;;
7231;SDS011;3657;49.630;11.018;2022-07-05T10:15:13;3.17;;;3.08;;
7231;SDS011;3657;49.630;11.018;2022-07-05T10:17:42;3.13;;;3.03;;
7231;SDS011;3657;49.630;11.018;2022-07-05T10:20:12;2.90;;;2.80;;
7231;SDS011;3657;49.630;11.018;2022-07-05T10:22:42;2.58;;;2.55;;
7231;SDS011;3657;49.630;11.018;2022-07-05T10:25:11;2.97;;;2.97;;
7231;SDS011;3657;49.630;11.018;2022-07-05T10:27:39;5.47;;;3.35;;
7231;SDS011;3657;49.630;11.018;2022-07-05T10:30:06;2.88;;;2.85;;
7231;SDS011;3657;49.630;11.018;2022-07-05T10:32:34;2.88;;;2.88;;
7231;SDS011;3657;49.630;11.018;2022-07-05T10:35:01;2.42;;;2.33;;
7231;SDS011;3657;49.630;11.018;2022-07-05T10:37:30;3.10;;;3.03;;
7231;SDS011;3657;49.630;11.018;2022-07-05T10:39:58;2.30;;;2.20;;
7231;SDS011;3657;49.630;11.018;2022-07-05T10:42:28;2.40;;;2.40;;
7231;SDS011;3657;49.630;11.018;2022-07-05T10:44:58;2.78;;;2.78;;
7231;SDS011;3657;49.630;11.018;2022-07-05T10:47:25;2.60;;;2.55;;
7231;SDS011;3657;49.630;11.018;2022-07-05T10:50:02;2.70;;;2.60;;
7231;SDS011;3657;49.630;11.018;2022-07-05T10:52:30;2.50;;;2.50;;
7231;SDS011;3657;49.630;11.018;2022-07-05T11:00:49;2.65;;;2.50;;
7231;SDS011;3657;49.630;11.018;2022-07-05T11:03:55;3.00;;;2.90;;
7231;SDS011;3657;49.630;11.018;2022-07-05T11:06:39;1.70;;;1.70;;
7231;SDS011;3657;49.630;11.018;2022-07-05T11:09:14;2.53;;;2.42;;
7231;SDS011;3657;49.630;11.018;2022-07-05T11:11:45;2.65;;;2.60;;
7231;SDS011;3657;49.630;11.018;2022-07-05T11:17:20;3.05;;;2.95;;
7231;SDS011;3657;49.630;11.018;2022-07-05T11:20:07;1.48;;;1.48;;
7231;SDS011;3657;49.630;11.018;2022-07-05T11:22:36;2.78;;;2.67;;
7231;SDS011;3657;49.630;11.018;2022-07-05T11:25:06;2.72;;;2.63;;
7231;SDS011;3657;49.630;11.018;2022-07-05T11:27:35;2.60;;;2.50;;
7231;SDS011;3657;49.630;11.018;2022-07-05T11:30:04;2.55;;;2.45;;
7231;SDS011;3657;49.630;11.018;2022-07-05T11:32:48;2.50;;;2.40;;
7231;SDS011;3657;49.630;11.018;2022-07-05T11:35:15;2.20;;;2.10;;
7231;SDS011;3657;49.630;11.018;2022-07-05T11:37:59;2.08;;;2.08;;
7231;SDS011;3657;49.630;11.018;2022-07-05T11:40:29;2.20;;;2.20;;
7231;SDS011;3657;49.630;11.018;2022-07-05T11:42:57;2.95;;;2.85;;
7231;SDS011;3657;49.630;11.018;2022-07-05T11:45:26;1.70;;;1.70;;
7231;SDS011;3657;49.630;11.018;2022-07-05T11:47:55;2.30;;;2.22;;
7231;SDS011;3657;49.630;11.018;2022-07-05T11:50:27;1.35;;;1.35;;
7231;SDS011;3657;49.630;11.018;2022-07-05T11:52:58;3.08;;;2.50;;
7231;SDS011;3657;49.630;11.018;2022-07-05T11:55:26;3.95;;;3.22;;
7231;SDS011;3657;49.630;11.018;2022-07-05T11:57:54;2.90;;;2.67;;
7231;SDS011;3657;49.630;11.018;2022-07-05T12:00:27;7.97;;;3.28;;
7231;SDS011;3657;49.630;11.018;2022-07-05T12:02:54;2.97;;;2.78;;
7231;SDS011;3657;49.630;11.018;2022-07-05T12:05:21;3.38;;;3.17;;
7231;SDS011;3657;49.630;11.018;2022-07-05T12:07:50;2.83;;;2.65;;
7231;SDS011;3657;49.630;11.018;2022-07-05T12:10:17;3.15;;;2.95;;
7231;SDS011;3657;49.630;11.018;2022-07-05T12:13:03;2.63;;;2.28;;
7231;SDS011;3657;49.630;11.018;2022-07-05T12:15:32;2.90;;;2.80;;
7231;SDS011;3657;49.630;11.018;2022-07-05T12:18:00;2.92;;;2.83;;
7231;SDS011;3657;49.630;11.018;2022-07-05T12:20:29;2.33;;;2.33;;
7231;SDS011;3657;49.630;11.018;2022-07-05T12:22:57;1.80;;;1.70;;
7231;SDS011;3657;49.630;11.018;2022-07-05T12:25:26;1.92;;;1.88;;
7231;SDS011;3657;49.630;11.018;2022-07-05T12:27:55;2.95;;;2.85;;
7231;SDS011;3657;49.630;11.018;2022-07-05T12:30:23;2.25;;;2.25;;
7231;SDS011;3657;49.630;11.018;2022-07-05T12:32:55;2.50;;;2.45;;
7231;SDS011;3657;49.630;11.018;2022-07-05T12:35:26;2.53;;;2.53;;
7231;SDS011;3657;49.630;11.018;2022-07-05T12:37:54;2.10;;;2.10;;
7231;SDS011;3657;49.630;11.018;2022-07-05T12:40:22;2.63;;;2.53;;
7231;SDS011;3657;49.630;11.018;2022-07-05T12:42:59;2.45;;;2.42;;
7231;SDS011;3657;49.630;11.018;2022-07-05T12:45:27;3.13;;;3.03;;
7231;SDS011;3657;49.630;11.018;2022-07-05T12:47:55;1.88;;;1.85;;
7231;SDS011;3657;49.630;11.018;2022-07-05T12:50:24;2.20;;;2.10;;
7231;SDS011;3657;49.630;11.018;2022-07-05T12:52:53;2.13;;;2.03;;
7231;SDS011;3657;49.630;11.018;2022-07-05T12:55:24;2.00;;;2.00;;
7231;SDS011;3657;49.630;11.018;2022-07-05T12:58:16;2.58;;;2.47;;
7231;SDS011;3657;49.630;11.018;2022-07-05T13:00:43;2.40;;;2.20;;
7231;SDS011;3657;49.630;11.018;2022-07-05T13:03:11;2.50;;;2.50;;
7231;SDS011;3657;49.630;11.018;2022-07-05T13:05:38;2.85;;;2.75;;
7231;SDS011;3657;49.630;11.018;2022-07-05T13:08:05;2.10;;;2.10;;
7231;SDS011;3657;49.630;11.018;2022-07-05T13:10:31;2.35;;;2.25;;
7231;SDS011;3657;49.630;11.018;2022-07-05T13:12:58;1.95;;;1.85;;
7231;SDS011;3657;49.630;11.018;2022-07-05T13:15:25;2.67;;;2.58;;
7231;SDS011;3657;49.630;11.018;2022-07-05T13:17:51;1.90;;;1.90;;
7231;SDS011;3657;49.630;11.018;2022-07-05T13:20:19;2.60;;;2.60;;
7231;SDS011;3657;49.630;11.018;2022-07-05T13:22:47;2.42;;;2.30;;
7231;SDS011;3657;49.630;11.018;2022-07-05T13:25:14;2.78;;;2.67;;
7231;SDS011;3657;49.630;11.018;2022-07-05T13:27:41;2.20;;;2.20;;
7231;SDS011;3657;49.630;11.018;2022-07-05T13:30:08;2.67;;;2.67;;
7231;SDS011;3657;49.630;11.018;2022-07-05T13:32:36;2.63;;;2.53;;
7231;SDS011;3657;49.630;11.018;2022-07-05T13:35:03;2.38;;;2.28;;
7231;SDS011;3657;49.630;11.018;2022-07-05T13:37:31;3.35;;;3.25;;
7231;SDS011;3657;49.630;11.018;2022-07-05T13:39:58;2.95;;;2.85;;
7231;SDS011;3657;49.630;11.018;2022-07-05T13:42:25;2.75;;;2.70;;
7231;SDS011;3657;49.630;11.018;2022-07-05T13:44:51;2.28;;;2.17;;
7231;SDS011;3657;49.630;11.018;2022-07-05T13:47:18;3.10;;;3.10;;
7231;SDS011;3657;49.630;11.018;2022-07-05T13:49:45;2.83;;;2.72;;
7231;SDS011;3657;49.630;11.018;2022-07-05T13:52:12;2.72;;;2.72;;
7231;SDS011;3657;49.630;11.018;2022-07-05T13:54:40;3.03;;;2.55;;
7231;SDS011;3657;49.630;11.018;2022-07-05T13:57:08;2.78;;;2.67;;
7231;SDS011;3657;49.630;11.018;2022-07-05T13:59:34;2.90;;;2.80;;
7231;SDS011;3657;49.630;11.018;2022-07-05T14:02:01;3.28;;;3.17;;
7231;SDS011;3657;49.630;11.018;2022-07-05T14:04:28;3.20;;;3.08;;
7231;SDS011;3657;49.630;11.018;2022-07-05T14:06:55;3.38;;;3.28;;
7231;SDS011;3657;49.630;11.018;2022-07-05T14:09:21;2.35;;;2.35;;
7231;SDS011;3657;49.630;11.018;2022-07-05T14:11:51;3.05;;;2.95;;
7231;SDS011;3657;49.630;11.018;2022-07-05T14:14:18;2.88;;;2.78;;
7231;SDS011;3657;49.630;11.018;2022-07-05T14:16:45;2.38;;;2.38;;
7231;SDS011;3657;49.630;11.018;2022-07-05T14:19:11;3.20;;;3.10;;
7231;SDS011;3657;49.630;11.018;2022-07-05T14:21:38;3.50;;;3.40;;
7231;SDS011;3657;49.630;11.018;2022-07-05T14:24:09;2.90;;;2.80;;
7231;SDS011;3657;49.630;11.018;2022-07-05T14:26:36;3.03;;;3.03;;
7231;SDS011;3657;49.630;11.018;2022-07-05T14:29:06;2.75;;;2.65;;
7231;SDS011;3657;49.630;11.018;2022-07-05T14:31:35;2.50;;;2.50;;
7231;SDS011;3657;49.630;11.018;2022-07-05T14:34:02;2.53;;;2.53;;
7231;SDS011;3657;49.630;11.018;2022-07-05T14:36:29;2.92;;;2.85;;
7231;SDS011;3657;49.630;11.018;2022-07-05T14:38:56;2.78;;;2.67;;
7231;SDS011;3657;49.630;11.018;2022-07-05T14:41:24;2.88;;;2.78;;
7231;SDS011;3657;49.630;11.018;2022-07-05T14:43:51;2.60;;;2.60;;
7231;SDS011;3657;49.630;11.018;2022-07-05T14:46:20;2.38;;;2.38;;
7231;SDS011;3657;49.630;11.018;2022-07-05T14:48:47;2.75;;;2.65;;
7231;SDS011;3657;49.630;11.018;2022-07-05T14:51:13;2.13;;;1.98;;
7231;SDS011;3657;49.630;11.018;2022-07-05T14:53:40;2.50;;;2.40;;
7231;SDS011;3657;49.630;11.018;2022-07-05T14:56:10;3.25;;;3.05;;
7231;SDS011;3657;49.630;11.018;2022-07-05T14:58:39;2.20;;;2.20;;
7231;SDS011;3657;49.630;11.018;2022-07-05T15:01:06;2.67;;;2.67;;
7231;SDS011;3657;49.630;11.018;2022-07-05T15:03:34;2.90;;;2.80;;
7231;SDS011;3657;49.630;11.018;2022-07-05T15:06:00;2.85;;;2.65;;
7231;SDS011;3657;49.630;11.018;2022-07-05T15:08:28;2.25;;;2.25;;
7231;SDS011;3657;49.630;11.018;2022-07-05T15:10:57;2.60;;;2.60;;
7231;SDS011;3657;49.630;11.018;2022-07-05T15:13:24;2.60;;;2.53;;
7231;SDS011;3657;49.630;11.018;2022-07-05T15:15:51;2.25;;;2.22;;